sensor_id;sensor_type;location;lat;lon;timestamp;P1;durP1;ratioP1;P2;durP2;ratioP2
63112;SDS011;49206;48.020;21.378;2023-04-25T00:00:57;41.20;;;27.65;;
63112;SDS011;49206;48.020;21.378;2023-04-25T00:01:59;41.58;;;26.08;;
63112;SDS011;49206;48.020;21.378;2023-04-25T00:03:02;42.55;;;27.85;;
63112;SDS011;49206;48.020;21.378;2023-04-25T00:04:05;41.05;;;27.73;;
63112;SDS011;49206;48.020;21.378;2023-04-25T00:05:08;43.60;;;28.67;;
63112;SDS011;49206;48.020;21.378;2023-04-25T00:06:11;48.65;;;28.95;;
63112;SDS011;49206;48.020;21.378;2023-04-25T00:07:14;43.72;;;27.15;;
63112;SDS011;49206;48.020;21.378;2023-04-25T00:08:16;41.42;;;28.05;;
63112;SDS011;49206;48.020;21.378;2023-04-25T00:09:19;43.47;;;27.75;;
63112;SDS011;49206;48.020;21.378;2023-04-25T00:10:22;44.92;;;27.83;;
63112;SDS011;49206;48.020;21.378;2023-04-25T00:11:24;42.67;;;27.40;;
63112;SDS011;49206;48.020;21.378;2023-04-25T00:12:27;47.50;;;28.58;;
63112;SDS011;49206;48.020;21.378;2023-04-25T00:13:30;43.00;;;29.20;;
63112;SDS011;49206;48.020;21.378;2023-04-25T00:14:33;46.70;;;29.80;;
63112;SDS011;49206;48.020;21.378;2023-04-25T00:15:38;42.00;;;27.10;;
63112;SDS011;49206;48.020;21.378;2023-04-25T00:16:40;43.20;;;28.75;;
63112;SDS011;49206;48.020;21.378;2023-04-25T00:17:46;45.13;;;28.13;;
63112;SDS011;49206;48.020;21.378;2023-04-25T00:18:49;44.28;;;28.58;;
63112;SDS011;49206;48.020;21.378;2023-04-25T00:19:55;41.25;;;28.10;;
63112;SDS011;49206;48.020;21.378;2023-04-25T00:20:58;43.38;;;27.90;;
63112;SDS011;49206;48.020;21.378;2023-04-25T00:22:02;45.42;;;29.23;;
63112;SDS011;49206;48.020;21.378;2023-04-25T00:23:04;40.63;;;28.33;;
63112;SDS011;49206;48.020;21.378;2023-04-25T00:24:07;46.22;;;28.27;;
63112;SDS011;49206;48.020;21.378;2023-04-25T00:25:09;45.67;;;27.65;;
63112;SDS011;49206;48.020;21.378;2023-04-25T00:26:12;41.58;;;26.42;;
63112;SDS011;49206;48.020;21.378;2023-04-25T00:27:14;39.78;;;25.65;;
63112;SDS011;49206;48.020;21.378;2023-04-25T00:28:17;40.05;;;25.73;;
63112;SDS011;49206;48.020;21.378;2023-04-25T00:29:20;38.90;;;26.52;;
63112;SDS011;49206;48.020;21.378;2023-04-25T00:30:22;40.38;;;26.10;;
63112;SDS011;49206;48.020;21.378;2023-04-25T00:31:25;40.55;;;26.52;;
63112;SDS011;49206;48.020;21.378;2023-04-25T00:32:27;38.20;;;25.63;;
63112;SDS011;49206;48.020;21.378;2023-04-25T00:33:29;37.47;;;24.58;;
63112;SDS011;49206;48.020;21.378;2023-04-25T00:34:32;36.78;;;24.17;;
63112;SDS011;49206;48.020;21.378;2023-04-25T00:35:34;42.17;;;26.42;;
63112;SDS011;49206;48.020;21.378;2023-04-25T00:36:37;36.88;;;24.02;;
63112;SDS011;49206;48.020;21.378;2023-04-25T00:37:39;37.47;;;25.45;;
63112;SDS011;49206;48.020;21.378;2023-04-25T00:38:42;36.05;;;24.88;;
63112;SDS011;49206;48.020;21.378;2023-04-25T00:39:44;36.72;;;24.08;;
63112;SDS011;49206;48.020;21.378;2023-04-25T00:40:47;37.47;;;23.85;;
63112;SDS011;49206;48.020;21.378;2023-04-25T00:41:49;39.15;;;25.02;;
63112;SDS011;49206;48.020;21.378;2023-04-25T00:42:55;38.22;;;24.98;;
63112;SDS011;49206;48.020;21.378;2023-04-25T00:43:57;39.03;;;24.52;;
63112;SDS011;49206;48.020;21.378;2023-04-25T00:44:59;32.85;;;21.88;;
63112;SDS011;49206;48.020;21.378;2023-04-25T00:46:03;33.50;;;21.92;;
63112;SDS011;49206;48.020;21.378;2023-04-25T00:47:05;33.58;;;22.65;;
63112;SDS011;49206;48.020;21.378;2023-04-25T00:48:09;32.45;;;21.65;;
63112;SDS011;49206;48.020;21.378;2023-04-25T00:49:12;39.20;;;23.20;;
63112;SDS011;49206;48.020;21.378;2023-04-25T00:50:17;33.90;;;22.52;;
63112;SDS011;49206;48.020;21.378;2023-04-25T00:51:20;32.78;;;23.17;;
63112;SDS011;49206;48.020;21.378;2023-04-25T00:52:23;33.70;;;22.27;;
63112;SDS011;49206;48.020;21.378;2023-04-25T00:53:27;34.35;;;21.55;;
63112;SDS011;49206;48.020;21.378;2023-04-25T00:54:30;33.25;;;21.67;;
63112;SDS011;49206;48.020;21.378;2023-04-25T00:55:32;30.55;;;20.65;;
63112;SDS011;49206;48.020;21.378;2023-04-25T00:56:36;33.83;;;21.92;;
63112;SDS011;49206;48.020;21.378;2023-04-25T00:57:39;32.90;;;22.08;;
63112;SDS011;49206;48.020;21.378;2023-04-25T00:58:42;33.25;;;22.80;;
63112;SDS011;49206;48.020;21.378;2023-04-25T00:59:45;36.83;;;24.10;;
63112;SDS011;49206;48.020;21.378;2023-04-25T01:00:51;34.00;;;22.35;;
63112;SDS011;49206;48.020;21.378;2023-04-25T01:01:54;36.13;;;22.58;;
63112;SDS011;49206;48.020;21.378;2023-04-25T01:02:56;32.75;;;22.02;;
63112;SDS011;49206;48.020;21.378;2023-04-25T01:03:59;35.47;;;23.05;;
63112;SDS011;49206;48.020;21.378;2023-04-25T01:05:03;34.45;;;22.08;;
63112;SDS011;49206;48.020;21.378;2023-04-25T01:06:07;32.58;;;21.23;;
63112;SDS011;49206;48.020;21.378;2023-04-25T01:07:10;34.92;;;23.08;;
63112;SDS011;49206;48.020;21.378;2023-04-25T01:08:13;35.17;;;21.83;;
63112;SDS011;49206;48.020;21.378;2023-04-25T01:09:16;33.60;;;21.80;;
63112;SDS011;49206;48.020;21.378;2023-04-25T01:10:19;34.33;;;22.77;;
63112;SDS011;49206;48.020;21.378;2023-04-25T01:11:22;37.25;;;22.33;;
63112;SDS011;49206;48.020;21.378;2023-04-25T01:12:24;33.40;;;22.58;;
63112;SDS011;49206;48.020;21.378;2023-04-25T01:13:27;35.85;;;23.60;;
63112;SDS011;49206;48.020;21.378;2023-04-25T01:14:29;36.08;;;22.20;;
63112;SDS011;49206;48.020;21.378;2023-04-25T01:15:31;33.65;;;22.10;;
63112;SDS011;49206;48.020;21.378;2023-04-25T01:16:34;37.15;;;23.83;;
63112;SDS011;49206;48.020;21.378;2023-04-25T01:17:38;35.58;;;23.42;;
63112;SDS011;49206;48.020;21.378;2023-04-25T01:18:42;34.10;;;22.45;;
63112;SDS011;49206;48.020;21.378;2023-04-25T01:19:45;31.13;;;21.63;;
63112;SDS011;49206;48.020;21.378;2023-04-25T01:20:51;34.65;;;21.13;;
63112;SDS011;49206;48.020;21.378;2023-04-25T01:21:55;33.03;;;23.63;;
63112;SDS011;49206;48.020;21.378;2023-04-25T01:22:58;34.03;;;23.40;;
63112;SDS011;49206;48.020;21.378;2023-04-25T01:24:00;34.45;;;22.52;;
63112;SDS011;49206;48.020;21.378;2023-04-25T01:25:03;38.88;;;23.15;;
63112;SDS011;49206;48.020;21.378;2023-04-25T01:26:07;37.20;;;24.17;;
63112;SDS011;49206;48.020;21.378;2023-04-25T01:27:11;35.35;;;23.45;;
63112;SDS011;49206;48.020;21.378;2023-04-25T01:28:16;37.80;;;24.27;;
63112;SDS011;49206;48.020;21.378;2023-04-25T01:29:19;38.75;;;24.10;;
63112;SDS011;49206;48.020;21.378;2023-04-25T01:30:22;38.45;;;24.73;;
63112;SDS011;49206;48.020;21.378;2023-04-25T01:31:25;38.22;;;24.55;;
63112;SDS011;49206;48.020;21.378;2023-04-25T01:32:28;37.80;;;24.50;;
63112;SDS011;49206;48.020;21.378;2023-04-25T01:33:40;37.03;;;23.73;;
63112;SDS011;49206;48.020;21.378;2023-04-25T01:34:42;38.90;;;24.50;;
63112;SDS011;49206;48.020;21.378;2023-04-25T01:35:45;38.13;;;24.63;;
63112;SDS011;49206;48.020;21.378;2023-04-25T01:36:49;39.00;;;25.30;;
63112;SDS011;49206;48.020;21.378;2023-04-25T01:37:52;42.33;;;26.05;;
63112;SDS011;49206;48.020;21.378;2023-04-25T01:38:55;33.03;;;22.48;;
63112;SDS011;49206;48.020;21.378;2023-04-25T01:39:59;38.63;;;24.48;;
63112;SDS011;49206;48.020;21.378;2023-04-25T01:41:03;38.28;;;23.63;;
63112;SDS011;49206;48.020;21.378;2023-04-25T01:42:05;38.22;;;24.67;;
63112;SDS011;49206;48.020;21.378;2023-04-25T01:43:08;37.13;;;24.50;;
63112;SDS011;49206;48.020;21.378;2023-04-25T01:44:13;38.33;;;25.05;;
63112;SDS011;49206;48.020;21.378;2023-04-25T01:45:15;40.60;;;24.88;;
63112;SDS011;49206;48.020;21.378;2023-04-25T01:46:18;34.45;;;23.00;;
63112;SDS011;49206;48.020;21.378;2023-04-25T01:47:20;36.60;;;23.65;;
63112;SDS011;49206;48.020;21.378;2023-04-25T01:48:25;37.75;;;24.25;;
63112;SDS011;49206;48.020;21.378;2023-04-25T01:49:28;37.42;;;24.27;;
63112;SDS011;49206;48.020;21.378;2023-04-25T01:50:30;38.60;;;24.85;;
63112;SDS011;49206;48.020;21.378;2023-04-25T01:51:33;38.00;;;24.48;;
63112;SDS011;49206;48.020;21.378;2023-04-25T01:52:35;36.53;;;22.95;;
63112;SDS011;49206;48.020;21.378;2023-04-25T01:53:38;34.92;;;22.25;;
63112;SDS011;49206;48.020;21.378;2023-04-25T01:54:41;31.75;;;21.13;;
63112;SDS011;49206;48.020;21.378;2023-04-25T01:55:47;31.75;;;21.67;;
63112;SDS011;49206;48.020;21.378;2023-04-25T01:56:54;32.13;;;20.92;;
63112;SDS011;49206;48.020;21.378;2023-04-25T01:57:59;34.15;;;22.48;;
63112;SDS011;49206;48.020;21.378;2023-04-25T01:59:22;33.00;;;21.73;;
63112;SDS011;49206;48.020;21.378;2023-04-25T02:00:39;33.17;;;22.20;;
63112;SDS011;49206;48.020;21.378;2023-04-25T02:01:42;36.40;;;23.85;;
63112;SDS011;49206;48.020;21.378;2023-04-25T02:02:58;36.33;;;22.88;;
63112;SDS011;49206;48.020;21.378;2023-04-25T02:04:05;37.40;;;23.90;;
63112;SDS011;49206;48.020;21.378;2023-04-25T02:05:10;33.72;;;22.70;;
63112;SDS011;49206;48.020;21.378;2023-04-25T02:06:14;35.63;;;23.90;;
63112;SDS011;49206;48.020;21.378;2023-04-25T02:07:19;35.75;;;22.45;;
63112;SDS011;49206;48.020;21.378;2023-04-25T02:08:25;34.70;;;22.67;;
63112;SDS011;49206;48.020;21.378;2023-04-25T02:09:29;37.10;;;22.55;;
63112;SDS011;49206;48.020;21.378;2023-04-25T02:10:32;35.45;;;22.27;;
63112;SDS011;49206;48.020;21.378;2023-04-25T02:11:54;37.38;;;22.95;;
63112;SDS011;49206;48.020;21.378;2023-04-25T02:13:03;34.00;;;22.67;;
63112;SDS011;49206;48.020;21.378;2023-04-25T02:14:25;36.13;;;22.60;;
63112;SDS011;49206;48.020;21.378;2023-04-25T02:15:41;38.88;;;22.40;;
63112;SDS011;49206;48.020;21.378;2023-04-25T02:16:49;33.90;;;21.63;;
63112;SDS011;49206;48.020;21.378;2023-04-25T02:17:53;34.47;;;22.23;;
63112;SDS011;49206;48.020;21.378;2023-04-25T02:18:56;36.35;;;21.92;;
63112;SDS011;49206;48.020;21.378;2023-04-25T02:20:00;37.85;;;22.88;;
63112;SDS011;49206;48.020;21.378;2023-04-25T02:21:02;36.20;;;22.77;;
63112;SDS011;49206;48.020;21.378;2023-04-25T02:22:05;35.83;;;24.50;;
63112;SDS011;49206;48.020;21.378;2023-04-25T02:23:07;33.30;;;22.70;;
63112;SDS011;49206;48.020;21.378;2023-04-25T02:24:10;37.35;;;24.02;;
63112;SDS011;49206;48.020;21.378;2023-04-25T02:25:12;37.13;;;23.92;;
63112;SDS011;49206;48.020;21.378;2023-04-25T02:26:15;40.30;;;24.05;;
63112;SDS011;49206;48.020;21.378;2023-04-25T02:27:17;36.47;;;24.67;;
63112;SDS011;49206;48.020;21.378;2023-04-25T02:28:20;40.50;;;24.48;;
63112;SDS011;49206;48.020;21.378;2023-04-25T02:29:22;34.72;;;23.77;;
63112;SDS011;49206;48.020;21.378;2023-04-25T02:30:25;36.13;;;23.02;;
63112;SDS011;49206;48.020;21.378;2023-04-25T02:31:27;40.45;;;23.50;;
63112;SDS011;49206;48.020;21.378;2023-04-25T02:32:32;38.90;;;23.73;;
63112;SDS011;49206;48.020;21.378;2023-04-25T02:33:36;39.47;;;23.73;;
63112;SDS011;49206;48.020;21.378;2023-04-25T02:34:40;35.58;;;23.35;;
63112;SDS011;49206;48.020;21.378;2023-04-25T02:35:42;39.15;;;25.00;;
63112;SDS011;49206;48.020;21.378;2023-04-25T02:36:45;37.50;;;23.92;;
63112;SDS011;49206;48.020;21.378;2023-04-25T02:37:51;34.35;;;23.02;;
63112;SDS011;49206;48.020;21.378;2023-04-25T02:38:54;39.58;;;23.98;;
63112;SDS011;49206;48.020;21.378;2023-04-25T02:39:56;37.88;;;24.27;;
63112;SDS011;49206;48.020;21.378;2023-04-25T02:41:00;37.00;;;23.92;;
63112;SDS011;49206;48.020;21.378;2023-04-25T02:42:02;39.05;;;23.60;;
63112;SDS011;49206;48.020;21.378;2023-04-25T02:43:04;37.70;;;23.70;;
63112;SDS011;49206;48.020;21.378;2023-04-25T02:44:07;36.28;;;22.38;;
63112;SDS011;49206;48.020;21.378;2023-04-25T02:45:09;37.08;;;24.63;;
63112;SDS011;49206;48.020;21.378;2023-04-25T02:46:12;40.85;;;24.65;;
63112;SDS011;49206;48.020;21.378;2023-04-25T02:47:14;35.70;;;23.33;;
63112;SDS011;49206;48.020;21.378;2023-04-25T02:48:17;37.70;;;23.30;;
63112;SDS011;49206;48.020;21.378;2023-04-25T02:49:20;38.47;;;24.58;;
63112;SDS011;49206;48.020;21.378;2023-04-25T02:50:22;39.00;;;23.70;;
63112;SDS011;49206;48.020;21.378;2023-04-25T02:51:25;38.65;;;24.52;;
63112;SDS011;49206;48.020;21.378;2023-04-25T02:52:28;37.75;;;22.73;;
63112;SDS011;49206;48.020;21.378;2023-04-25T02:53:38;38.75;;;23.80;;
63112;SDS011;49206;48.020;21.378;2023-04-25T02:54:40;39.28;;;23.80;;
63112;SDS011;49206;48.020;21.378;2023-04-25T02:55:43;35.75;;;22.70;;
63112;SDS011;49206;48.020;21.378;2023-04-25T02:56:45;38.20;;;24.50;;
63112;SDS011;49206;48.020;21.378;2023-04-25T02:57:54;39.15;;;24.13;;
63112;SDS011;49206;48.020;21.378;2023-04-25T02:59:20;38.20;;;23.83;;
63112;SDS011;49206;48.020;21.378;2023-04-25T03:00:23;40.10;;;23.20;;
63112;SDS011;49206;48.020;21.378;2023-04-25T03:01:25;37.50;;;23.40;;
63112;SDS011;49206;48.020;21.378;2023-04-25T03:02:29;34.70;;;22.45;;
63112;SDS011;49206;48.020;21.378;2023-04-25T03:03:31;33.72;;;21.48;;
63112;SDS011;49206;48.020;21.378;2023-04-25T03:04:34;34.47;;;21.95;;
63112;SDS011;49206;48.020;21.378;2023-04-25T03:05:36;34.15;;;21.50;;
63112;SDS011;49206;48.020;21.378;2023-04-25T03:06:38;34.67;;;22.85;;
63112;SDS011;49206;48.020;21.378;2023-04-25T03:07:41;38.08;;;23.65;;
63112;SDS011;49206;48.020;21.378;2023-04-25T03:09:47;36.63;;;22.02;;
63112;SDS011;49206;48.020;21.378;2023-04-25T03:10:50;33.88;;;21.35;;
63112;SDS011;49206;48.020;21.378;2023-04-25T03:11:53;33.40;;;22.27;;
63112;SDS011;49206;48.020;21.378;2023-04-25T03:12:56;34.25;;;22.10;;
63112;SDS011;49206;48.020;21.378;2023-04-25T03:13:59;33.35;;;22.10;;
63112;SDS011;49206;48.020;21.378;2023-04-25T03:15:02;34.85;;;22.88;;
63112;SDS011;49206;48.020;21.378;2023-04-25T03:16:05;36.25;;;22.45;;
63112;SDS011;49206;48.020;21.378;2023-04-25T03:17:08;35.15;;;21.88;;
63112;SDS011;49206;48.020;21.378;2023-04-25T03:18:11;34.35;;;22.23;;
63112;SDS011;49206;48.020;21.378;2023-04-25T03:19:13;36.03;;;23.23;;
63112;SDS011;49206;48.020;21.378;2023-04-25T03:21:20;33.53;;;21.23;;
63112;SDS011;49206;48.020;21.378;2023-04-25T03:22:23;33.55;;;21.02;;
63112;SDS011;49206;48.020;21.378;2023-04-25T03:23:25;33.45;;;21.45;;
63112;SDS011;49206;48.020;21.378;2023-04-25T03:24:28;31.98;;;21.63;;
63112;SDS011;49206;48.020;21.378;2023-04-25T03:25:30;34.85;;;21.48;;
63112;SDS011;49206;48.020;21.378;2023-04-25T03:26:33;36.58;;;22.70;;
63112;SDS011;49206;48.020;21.378;2023-04-25T03:27:35;35.67;;;22.83;;
63112;SDS011;49206;48.020;21.378;2023-04-25T03:28:38;35.22;;;22.45;;
63112;SDS011;49206;48.020;21.378;2023-04-25T03:29:42;36.05;;;22.15;;
63112;SDS011;49206;48.020;21.378;2023-04-25T03:30:45;35.60;;;23.13;;
63112;SDS011;49206;48.020;21.378;2023-04-25T03:31:47;30.88;;;21.60;;
63112;SDS011;49206;48.020;21.378;2023-04-25T03:32:50;34.58;;;22.38;;
63112;SDS011;49206;48.020;21.378;2023-04-25T03:33:52;33.35;;;21.65;;
63112;SDS011;49206;48.020;21.378;2023-04-25T03:34:56;31.70;;;21.20;;
63112;SDS011;49206;48.020;21.378;2023-04-25T03:36:01;35.03;;;21.13;;
63112;SDS011;49206;48.020;21.378;2023-04-25T03:37:04;35.17;;;21.35;;
63112;SDS011;49206;48.020;21.378;2023-04-25T03:38:11;31.75;;;21.02;;
63112;SDS011;49206;48.020;21.378;2023-04-25T03:39:14;33.47;;;21.55;;
63112;SDS011;49206;48.020;21.378;2023-04-25T03:40:21;31.42;;;20.08;;
63112;SDS011;49206;48.020;21.378;2023-04-25T03:41:44;30.27;;;21.45;;
63112;SDS011;49206;48.020;21.378;2023-04-25T03:42:48;32.63;;;19.88;;
63112;SDS011;49206;48.020;21.378;2023-04-25T03:43:52;32.80;;;21.33;;
63112;SDS011;49206;48.020;21.378;2023-04-25T03:44:55;33.72;;;21.33;;
63112;SDS011;49206;48.020;21.378;2023-04-25T03:45:59;34.95;;;22.45;;
63112;SDS011;49206;48.020;21.378;2023-04-25T03:47:02;33.15;;;22.85;;
63112;SDS011;49206;48.020;21.378;2023-04-25T03:48:05;36.45;;;23.20;;
63112;SDS011;49206;48.020;21.378;2023-04-25T03:49:08;34.03;;;22.02;;
63112;SDS011;49206;48.020;21.378;2023-04-25T03:50:40;33.95;;;22.05;;
63112;SDS011;49206;48.020;21.378;2023-04-25T03:51:43;35.13;;;22.13;;
63112;SDS011;49206;48.020;21.378;2023-04-25T03:52:45;36.33;;;23.20;;
63112;SDS011;49206;48.020;21.378;2023-04-25T03:53:48;36.28;;;22.83;;
63112;SDS011;49206;48.020;21.378;2023-04-25T03:54:53;32.70;;;22.23;;
63112;SDS011;49206;48.020;21.378;2023-04-25T03:55:58;33.83;;;21.73;;
63112;SDS011;49206;48.020;21.378;2023-04-25T03:57:01;34.05;;;22.50;;
63112;SDS011;49206;48.020;21.378;2023-04-25T03:58:06;37.20;;;22.45;;
63112;SDS011;49206;48.020;21.378;2023-04-25T03:59:10;32.22;;;22.02;;
63112;SDS011;49206;48.020;21.378;2023-04-25T04:00:14;33.70;;;21.73;;
63112;SDS011;49206;48.020;21.378;2023-04-25T04:01:16;34.25;;;22.05;;
63112;SDS011;49206;48.020;21.378;2023-04-25T04:02:19;33.42;;;21.90;;
63112;SDS011;49206;48.020;21.378;2023-04-25T04:03:22;36.47;;;22.40;;
63112;SDS011;49206;48.020;21.378;2023-04-25T04:04:25;33.35;;;21.02;;
63112;SDS011;49206;48.020;21.378;2023-04-25T04:05:28;32.28;;;22.30;;
63112;SDS011;49206;48.020;21.378;2023-04-25T04:06:31;36.58;;;23.08;;
63112;SDS011;49206;48.020;21.378;2023-04-25T04:07:41;34.05;;;22.40;;
63112;SDS011;49206;48.020;21.378;2023-04-25T04:08:46;34.50;;;22.33;;
63112;SDS011;49206;48.020;21.378;2023-04-25T04:09:49;35.30;;;23.20;;
63112;SDS011;49206;48.020;21.378;2023-04-25T04:11:00;33.08;;;21.90;;
63112;SDS011;49206;48.020;21.378;2023-04-25T04:12:02;37.13;;;23.90;;
63112;SDS011;49206;48.020;21.378;2023-04-25T04:13:06;33.97;;;22.83;;
63112;SDS011;49206;48.020;21.378;2023-04-25T04:14:09;33.25;;;22.55;;
63112;SDS011;49206;48.020;21.378;2023-04-25T04:15:16;37.33;;;23.48;;
63112;SDS011;49206;48.020;21.378;2023-04-25T04:16:20;36.85;;;22.58;;
63112;SDS011;49206;48.020;21.378;2023-04-25T04:17:22;33.50;;;22.10;;
63112;SDS011;49206;48.020;21.378;2023-04-25T04:18:27;36.30;;;23.63;;
63112;SDS011;49206;48.020;21.378;2023-04-25T04:19:31;36.63;;;23.17;;
63112;SDS011;49206;48.020;21.378;2023-04-25T04:20:45;34.63;;;23.17;;
63112;SDS011;49206;48.020;21.378;2023-04-25T04:21:48;32.88;;;22.00;;
63112;SDS011;49206;48.020;21.378;2023-04-25T04:22:50;33.95;;;21.83;;
63112;SDS011;49206;48.020;21.378;2023-04-25T04:23:53;32.17;;;21.83;;
63112;SDS011;49206;48.020;21.378;2023-04-25T04:25:00;32.88;;;21.25;;
63112;SDS011;49206;48.020;21.378;2023-04-25T04:26:26;34.83;;;21.48;;
63112;SDS011;49206;48.020;21.378;2023-04-25T04:27:48;32.55;;;20.83;;
63112;SDS011;49206;48.020;21.378;2023-04-25T04:29:16;34.08;;;21.42;;
63112;SDS011;49206;48.020;21.378;2023-04-25T04:30:35;34.08;;;22.45;;
63112;SDS011;49206;48.020;21.378;2023-04-25T04:31:42;37.58;;;23.30;;
63112;SDS011;49206;48.020;21.378;2023-04-25T04:32:45;34.75;;;22.52;;
63112;SDS011;49206;48.020;21.378;2023-04-25T04:33:51;36.30;;;22.55;;
63112;SDS011;49206;48.020;21.378;2023-04-25T04:34:54;36.67;;;24.20;;
63112;SDS011;49206;48.020;21.378;2023-04-25T04:35:58;35.60;;;22.45;;
63112;SDS011;49206;48.020;21.378;2023-04-25T04:37:02;34.78;;;22.23;;
63112;SDS011;49206;48.020;21.378;2023-04-25T04:38:04;36.97;;;23.65;;
63112;SDS011;49206;48.020;21.378;2023-04-25T04:40:19;33.25;;;21.65;;
63112;SDS011;49206;48.020;21.378;2023-04-25T04:41:30;38.60;;;23.35;;
63112;SDS011;49206;48.020;21.378;2023-04-25T04:42:50;37.72;;;22.52;;
63112;SDS011;49206;48.020;21.378;2023-04-25T04:44:15;37.05;;;22.85;;
63112;SDS011;49206;48.020;21.378;2023-04-25T04:45:39;37.90;;;24.33;;
63112;SDS011;49206;48.020;21.378;2023-04-25T04:47:00;37.42;;;22.65;;
63112;SDS011;49206;48.020;21.378;2023-04-25T04:48:15;36.95;;;24.48;;
63112;SDS011;49206;48.020;21.378;2023-04-25T04:49:36;39.00;;;23.52;;
63112;SDS011;49206;48.020;21.378;2023-04-25T04:51:02;38.17;;;23.48;;
63112;SDS011;49206;48.020;21.378;2023-04-25T04:52:43;36.53;;;23.25;;
63112;SDS011;49206;48.020;21.378;2023-04-25T04:54:11;37.38;;;22.45;;
63112;SDS011;49206;48.020;21.378;2023-04-25T04:55:48;38.47;;;22.85;;
63112;SDS011;49206;48.020;21.378;2023-04-25T04:57:22;36.72;;;22.90;;
63112;SDS011;49206;48.020;21.378;2023-04-25T04:58:44;40.20;;;23.17;;
63112;SDS011;49206;48.020;21.378;2023-04-25T05:00:07;37.63;;;23.90;;
63112;SDS011;49206;48.020;21.378;2023-04-25T05:01:24;33.35;;;22.42;;
63112;SDS011;49206;48.020;21.378;2023-04-25T05:02:31;38.55;;;24.92;;
63112;SDS011;49206;48.020;21.378;2023-04-25T05:03:54;39.50;;;24.60;;
63112;SDS011;49206;48.020;21.378;2023-04-25T05:05:19;38.95;;;24.83;;
63112;SDS011;49206;48.020;21.378;2023-04-25T05:06:42;35.25;;;23.00;;
63112;SDS011;49206;48.020;21.378;2023-04-25T05:08:03;37.47;;;25.23;;
63112;SDS011;49206;48.020;21.378;2023-04-25T05:09:24;36.92;;;23.92;;
63112;SDS011;49206;48.020;21.378;2023-04-25T05:10:57;37.97;;;24.30;;
63112;SDS011;49206;48.020;21.378;2023-04-25T05:12:28;36.45;;;24.20;;
63112;SDS011;49206;48.020;21.378;2023-04-25T05:13:54;37.03;;;24.02;;
63112;SDS011;49206;48.020;21.378;2023-04-25T05:15:23;34.13;;;23.48;;
63112;SDS011;49206;48.020;21.378;2023-04-25T05:16:34;36.50;;;23.50;;
63112;SDS011;49206;48.020;21.378;2023-04-25T05:17:51;38.28;;;23.92;;
63112;SDS011;49206;48.020;21.378;2023-04-25T05:19:13;36.00;;;24.23;;
63112;SDS011;49206;48.020;21.378;2023-04-25T05:20:38;36.15;;;23.00;;
63112;SDS011;49206;48.020;21.378;2023-04-25T05:21:46;40.70;;;25.02;;
63112;SDS011;49206;48.020;21.378;2023-04-25T05:23:08;40.33;;;24.80;;
63112;SDS011;49206;48.020;21.378;2023-04-25T05:24:29;38.38;;;23.83;;
63112;SDS011;49206;48.020;21.378;2023-04-25T05:25:57;37.47;;;23.52;;
63112;SDS011;49206;48.020;21.378;2023-04-25T05:27:11;38.13;;;25.17;;
63112;SDS011;49206;48.020;21.378;2023-04-25T05:28:21;35.92;;;23.38;;
63112;SDS011;49206;48.020;21.378;2023-04-25T05:29:43;38.10;;;23.52;;
63112;SDS011;49206;48.020;21.378;2023-04-25T05:32:02;38.17;;;23.65;;
63112;SDS011;49206;48.020;21.378;2023-04-25T05:33:05;38.22;;;23.83;;
63112;SDS011;49206;48.020;21.378;2023-04-25T05:34:07;36.35;;;25.38;;
63112;SDS011;49206;48.020;21.378;2023-04-25T05:35:25;35.67;;;23.92;;
63112;SDS011;49206;48.020;21.378;2023-04-25T05:36:28;36.67;;;24.77;;
63112;SDS011;49206;48.020;21.378;2023-04-25T05:37:30;35.28;;;23.85;;
63112;SDS011;49206;48.020;21.378;2023-04-25T05:38:43;36.88;;;24.45;;
63112;SDS011;49206;48.020;21.378;2023-04-25T05:39:48;37.08;;;24.02;;
63112;SDS011;49206;48.020;21.378;2023-04-25T05:41:13;35.55;;;23.05;;
63112;SDS011;49206;48.020;21.378;2023-04-25T05:42:18;33.85;;;22.23;;
63112;SDS011;49206;48.020;21.378;2023-04-25T05:43:38;35.40;;;23.45;;
63112;SDS011;49206;48.020;21.378;2023-04-25T05:44:59;34.65;;;23.48;;
63112;SDS011;49206;48.020;21.378;2023-04-25T05:46:25;34.65;;;22.42;;
63112;SDS011;49206;48.020;21.378;2023-04-25T05:47:47;32.97;;;21.70;;
63112;SDS011;49206;48.020;21.378;2023-04-25T05:48:57;34.72;;;22.92;;
63112;SDS011;49206;48.020;21.378;2023-04-25T05:50:18;35.85;;;22.83;;
63112;SDS011;49206;48.020;21.378;2023-04-25T05:51:43;32.33;;;22.40;;
63112;SDS011;49206;48.020;21.378;2023-04-25T05:53:06;33.88;;;23.30;;
63112;SDS011;49206;48.020;21.378;2023-04-25T05:54:17;35.88;;;23.75;;
63112;SDS011;49206;48.020;21.378;2023-04-25T05:55:19;31.67;;;22.77;;
63112;SDS011;49206;48.020;21.378;2023-04-25T05:56:21;35.72;;;24.30;;
63112;SDS011;49206;48.020;21.378;2023-04-25T05:57:26;36.33;;;23.45;;
63112;SDS011;49206;48.020;21.378;2023-04-25T05:58:30;36.15;;;23.60;;
63112;SDS011;49206;48.020;21.378;2023-04-25T05:59:34;34.65;;;23.63;;
63112;SDS011;49206;48.020;21.378;2023-04-25T06:00:36;35.50;;;22.98;;
63112;SDS011;49206;48.020;21.378;2023-04-25T06:01:39;37.22;;;25.23;;
63112;SDS011;49206;48.020;21.378;2023-04-25T06:02:42;36.10;;;25.52;;
63112;SDS011;49206;48.020;21.378;2023-04-25T06:03:47;36.60;;;25.08;;
63112;SDS011;49206;48.020;21.378;2023-04-25T06:04:52;36.95;;;24.10;;
63112;SDS011;49206;48.020;21.378;2023-04-25T06:05:56;37.10;;;25.50;;
63112;SDS011;49206;48.020;21.378;2023-04-25T06:07:00;37.78;;;25.25;;
63112;SDS011;49206;48.020;21.378;2023-04-25T06:08:02;37.53;;;24.35;;
63112;SDS011;49206;48.020;21.378;2023-04-25T06:09:05;38.60;;;25.00;;
63112;SDS011;49206;48.020;21.378;2023-04-25T06:10:07;38.05;;;25.50;;
63112;SDS011;49206;48.020;21.378;2023-04-25T06:11:10;40.92;;;26.70;;
63112;SDS011;49206;48.020;21.378;2023-04-25T06:12:13;39.03;;;25.85;;
63112;SDS011;49206;48.020;21.378;2023-04-25T06:13:16;40.00;;;26.20;;
63112;SDS011;49206;48.020;21.378;2023-04-25T06:14:18;48.63;;;28.35;;
63112;SDS011;49206;48.020;21.378;2023-04-25T06:15:23;43.47;;;26.52;;
63112;SDS011;49206;48.020;21.378;2023-04-25T06:16:30;40.00;;;25.80;;
63112;SDS011;49206;48.020;21.378;2023-04-25T06:17:33;39.90;;;27.30;;
63112;SDS011;49206;48.020;21.378;2023-04-25T06:18:36;37.17;;;25.25;;
63112;SDS011;49206;48.020;21.378;2023-04-25T06:19:38;39.33;;;27.27;;
63112;SDS011;49206;48.020;21.378;2023-04-25T06:20:41;39.22;;;25.15;;
63112;SDS011;49206;48.020;21.378;2023-04-25T06:21:43;38.33;;;27.08;;
63112;SDS011;49206;48.020;21.378;2023-04-25T06:22:46;41.17;;;27.92;;
63112;SDS011;49206;48.020;21.378;2023-04-25T06:23:49;43.65;;;27.48;;
63112;SDS011;49206;48.020;21.378;2023-04-25T06:24:56;44.55;;;27.85;;
63112;SDS011;49206;48.020;21.378;2023-04-25T06:26:01;41.58;;;27.45;;
63112;SDS011;49206;48.020;21.378;2023-04-25T06:27:05;39.90;;;26.38;;
63112;SDS011;49206;48.020;21.378;2023-04-25T06:28:08;39.20;;;26.75;;
63112;SDS011;49206;48.020;21.378;2023-04-25T06:29:11;38.13;;;25.58;;